createdAt,value
2018-12-24T15:54:47.356Z,99518.77
2018-12-24T15:57:22.290Z,99527.66
2018-12-24T15:59:56.697Z,99528.50
2018-12-24T16:02:28.327Z,99533.75
2018-12-24T16:05:00.041Z,99538.11
2018-12-24T16:07:31.839Z,99539.51
2018-12-24T16:10:07.397Z,99545.22
2018-12-24T16:12:39.018Z,99544.75
2018-12-24T16:15:10.707Z,99551.14
2018-12-24T16:17:42.452Z,99549.38
2018-12-24T16:20:14.042Z,99554.77
2018-12-24T16:22:45.644Z,99557.46
2018-12-24T16:25:17.326Z,99556.80
2018-12-24T16:27:49.033Z,99556.80
2018-12-24T16:30:20.656Z,99552.12
2018-12-24T16:32:52.596Z,99565.25
2018-12-24T16:35:24.218Z,99561.25
2018-12-24T16:37:57.713Z,99573.77
2018-12-24T16:40:29.344Z,99574.28
2018-12-24T16:43:01.025Z,99570.03
2018-12-24T16:45:32.718Z,99572.34
2018-12-24T16:48:04.595Z,99583.20
2018-12-24T16:50:36.176Z,99581.63
2018-12-24T16:53:07.817Z,99576.81
2018-12-24T16:55:39.376Z,99568.61
2018-12-24T16:58:11.248Z,99561.91
2018-12-24T17:00:42.832Z,99565.56
2018-12-24T17:03:14.405Z,99574.59
2018-12-24T17:05:46.302Z,99574.45
2018-12-24T17:08:23.934Z,99580.94
2018-12-24T17:11:00.144Z,99587.09
2018-12-24T17:13:31.737Z,99600.71
2018-12-24T17:16:04.663Z,99611.08
2018-12-24T17:18:36.277Z,99623.72
2018-12-24T17:21:12.541Z,99630.38
2018-12-24T17:23:45.757Z,99636.95
2018-12-24T17:26:18.573Z,99628.88
2018-12-24T17:28:50.157Z,99630.09
2018-12-24T17:31:21.799Z,99629.63
2018-12-24T17:33:56.666Z,99634.27
2018-12-24T17:36:28.543Z,99635.48
2018-12-24T17:39:03.309Z,99625.70
2018-12-24T17:41:36.945Z,99621.31
2018-12-24T17:44:10.548Z,99619.22
2018-12-24T17:46:41.845Z,99626.50
2018-12-24T17:49:13.441Z,99629.17
2018-12-24T17:51:48.093Z,99634.86
2018-12-24T17:54:21.354Z,99638.34
2018-12-24T17:56:54.605Z,99636.70
2018-12-24T17:59:26.164Z,99645.23
2018-12-24T18:01:58.220Z,99646.11
2018-12-24T18:04:30.973Z,99655.73
2018-12-24T18:07:04.698Z,99649.66
2018-12-24T18:09:36.436Z,99657.33
2018-12-24T18:12:08.324Z,99656.73
2018-12-24T18:14:40.021Z,99652.42
2018-12-24T18:17:24.512Z,99651.76
2018-12-24T18:19:49.973Z,99641.89
2018-12-24T18:22:23.609Z,99639.30
2018-12-24T18:24:57.006Z,99642.69
2018-12-24T18:27:35.890Z,99652.26
2018-12-24T18:30:10.861Z,99666.42
2018-12-24T18:32:42.733Z,99662.80
2018-12-24T18:35:14.408Z,99661.66
2018-12-24T18:37:48.087Z,99669.55
2018-12-24T18:40:26.019Z,99673.02
2018-12-24T18:43:03.253Z,99675.50
2018-12-24T18:45:36.896Z,99680.34
2018-12-24T18:48:08.737Z,99677.91
2018-12-24T18:50:42.409Z,99688.27
2018-12-24T18:53:16.344Z,99682.63
2018-12-24T18:55:54.100Z,99683.42
2018-12-24T18:58:26.013Z,99682.55
2018-12-24T19:00:59.558Z,99684.34
2018-12-24T19:03:32.628Z,99683.02
2018-12-24T19:06:07.360Z,99680.04
2018-12-24T19:08:39.239Z,99677.03
2018-12-24T19:11:12.521Z,99684.04
2018-12-24T19:13:45.197Z,99679.73
2018-12-24T19:16:17.063Z,99687.16
2018-12-24T19:18:48.649Z,99682.20
2018-12-24T19:21:20.530Z,99680.68
2018-12-24T19:23:53.877Z,99677.75
2018-12-24T19:26:25.783Z,99679.56
2018-12-24T19:28:59.214Z,99679.49
2018-12-24T19:31:33.696Z,99689.50
2018-12-24T19:34:11.256Z,99688.45
2018-12-24T19:36:45.636Z,99695.63
2018-12-24T19:39:19.819Z,99700.27
2018-12-24T19:41:51.706Z,99721.00
2018-12-24T19:44:23.448Z,99726.42
2018-12-24T19:46:55.330Z,99729.88
2018-12-24T19:49:27.205Z,99735.16
2018-12-24T19:51:59.092Z,99748.83
2018-12-24T19:54:32.155Z,99742.91
2018-12-24T19:57:07.072Z,99741.27
2018-12-24T19:59:41.872Z,99759.86
2018-12-24T20:02:16.435Z,99773.33
2018-12-24T20:04:51.337Z,99774.36
2018-12-24T20:07:25.653Z,99769.80
2018-12-24T20:09:59.357Z,99755.99
2018-12-24T20:12:32.894Z,99752.18
2018-12-24T20:15:06.067Z,99761.34
2018-12-24T20:17:37.979Z,99772.68
2018-12-24T20:20:09.940Z,99773.61
2018-12-24T20:22:41.834Z,99778.86
2018-12-24T20:25:13.759Z,99783.20
2018-12-24T20:27:51.605Z,99797.47
2018-12-24T20:30:25.443Z,99809.99
2018-12-24T20:32:59.272Z,99813.84
2018-12-24T20:35:31.204Z,99817.27
2018-12-24T20:38:04.411Z,99818.56
2018-12-24T20:40:39.162Z,99822.89
2018-12-24T20:43:11.075Z,99833.75
2018-12-24T20:45:45.698Z,99845.88
2018-12-24T20:48:17.719Z,99856.16
2018-12-24T20:50:49.588Z,99841.14
2018-12-24T20:53:21.501Z,99836.45
2018-12-24T20:55:53.381Z,99842.91
2018-12-24T20:58:25.320Z,99857.04
2018-12-24T21:01:00.250Z,99844.45
2018-12-24T21:03:36.613Z,99844.04
2018-12-24T21:06:09.980Z,99836.84
2018-12-24T21:08:41.881Z,99833.06
2018-12-24T21:11:13.785Z,99834.73
2018-12-24T21:13:45.760Z,99829.53
2018-12-24T21:16:17.692Z,99826.14
2018-12-24T21:18:49.577Z,99825.89
2018-12-24T21:21:21.475Z,99819.67
2018-12-24T21:23:53.624Z,99820.30
2018-12-24T21:26:25.531Z,99819.13
2018-12-24T21:28:57.422Z,99822.16
2018-12-24T21:31:29.487Z,99821.39
2018-12-24T21:34:01.359Z,99823.27
2018-12-24T21:36:33.290Z,99813.00
2018-12-24T21:39:07.745Z,99812.23
2018-12-24T21:41:39.679Z,99815.36
2018-12-24T21:44:11.556Z,99821.84
2018-12-24T21:46:43.514Z,99823.20
2018-12-24T21:49:15.664Z,99827.98
2018-12-24T21:51:49.390Z,99833.57
2018-12-24T21:54:21.301Z,99825.36
2018-12-24T21:56:53.205Z,99829.78
2018-12-24T21:59:25.060Z,99831.55
2018-12-24T22:01:56.965Z,99843.30
2018-12-24T22:04:28.954Z,99849.83
2018-12-24T22:07:00.892Z,99851.97
2018-12-24T22:09:32.788Z,99850.38
2018-12-24T22:12:04.914Z,99847.75
2018-12-24T22:14:36.789Z,99854.33
2018-12-24T22:17:08.698Z,99844.88
2018-12-24T22:19:40.554Z,99844.41
2018-12-24T22:22:12.460Z,99845.20
2018-12-24T22:24:44.374Z,99852.91
2018-12-24T22:27:16.335Z,99857.73
2018-12-24T22:29:48.334Z,99857.07
2018-12-24T22:32:20.365Z,99864.56
2018-12-24T22:34:52.255Z,99859.87
2018-12-24T22:37:27.124Z,99865.35
2018-12-24T22:39:59.052Z,99868.39
2018-12-24T22:42:30.955Z,99870.52
2018-12-24T22:45:02.867Z,99877.05
2018-12-24T22:47:34.793Z,99886.15
2018-12-24T22:50:09.511Z,99899.81
2018-12-24T22:52:41.399Z,99901.96
2018-12-24T22:55:14.770Z,99897.66
2018-12-24T22:57:46.679Z,99888.58
2018-12-24T23:00:32.222Z,99892.52
2018-12-24T23:03:04.507Z,99894.69
2018-12-24T23:05:36.401Z,99889.96
2018-12-24T23:08:08.302Z,99887.84
2018-12-24T23:10:40.290Z,99897.70
2018-12-24T23:13:12.174Z,99893.92
2018-12-24T23:15:44.058Z,99902.02
2018-12-24T23:18:15.949Z,99899.50
2018-12-24T23:20:47.926Z,99896.58
2018-12-24T23:23:19.917Z,99895.67
2018-12-24T23:25:52.058Z,99897.88
2018-12-24T23:28:30.357Z,99889.30
2018-12-24T23:31:02.248Z,99891.44
2018-12-24T23:33:34.142Z,99892.32
2018-12-24T23:36:06.029Z,99888.48
2018-12-24T23:38:37.945Z,99891.05
2018-12-24T23:41:09.870Z,99894.95
2018-12-24T23:43:41.763Z,99896.69
2018-12-24T23:46:13.688Z,99895.02
2018-12-24T23:48:45.529Z,99905.80
2018-12-24T23:51:18.985Z,99911.45
2018-12-24T23:53:52.549Z,99907.60
2018-12-24T23:56:24.466Z,99904.56
2018-12-24T23:58:56.375Z,99902.86
